createdAt,value
2022-10-18T00:00:18.847Z,95671.88
2022-10-18T00:02:46.619Z,95654.72
2022-10-18T00:05:13.884Z,95669.69
2022-10-18T00:07:41.453Z,95683.78
2022-10-18T00:10:08.615Z,95681.00
2022-10-18T00:12:36.863Z,95681.53
2022-10-18T00:15:05.552Z,95647.78
2022-10-18T00:17:34.557Z,95605.56
2022-10-18T00:20:01.231Z,95638.38
2022-10-18T00:22:28.106Z,95654.69
2022-10-18T00:24:55.214Z,95666.28
2022-10-18T00:27:21.919Z,95680.84
2022-10-18T00:29:53.105Z,95696.28
2022-10-18T00:32:19.843Z,95649.22
2022-10-18T00:34:46.651Z,95627.75
2022-10-18T00:37:13.686Z,95599.47
2022-10-18T00:39:40.468Z,95617.38
2022-10-18T00:42:07.404Z,95641.31
2022-10-18T00:44:34.098Z,95654.13
2022-10-18T00:47:05.100Z,95667.38
2022-10-18T00:49:33.979Z,95670.56
2022-10-18T00:52:08.294Z,95661.75
2022-10-18T00:54:38.449Z,95642.94
2022-10-18T00:57:06.297Z,95639.41
2022-10-18T00:59:34.070Z,95661.53
2022-10-18T01:02:01.580Z,95667.50
2022-10-18T01:04:28.537Z,95684.41
2022-10-18T01:07:00.367Z,95663.88
2022-10-18T01:09:36.005Z,95643.78
2022-10-18T01:12:28.158Z,95626.41
2022-10-18T01:14:54.921Z,95638.38
2022-10-18T01:17:30.717Z,95651.75
2022-10-18T01:20:27.757Z,95651.25
2022-10-18T01:23:08.717Z,95655.63
2022-10-18T01:26:02.043Z,95685.56
2022-10-18T01:29:03.958Z,95668.56
2022-10-18T01:31:34.973Z,95643.47
2022-10-18T01:34:05.650Z,95657.47
2022-10-18T01:36:35.922Z,95658.50
2022-10-18T01:39:07.635Z,95670.47
2022-10-18T01:41:37.748Z,95654.66
2022-10-18T01:44:09.747Z,95670.75
2022-10-18T01:46:39.879Z,95681.63
2022-10-18T01:49:07.318Z,95659.84
2022-10-18T01:51:34.401Z,95675.22
2022-10-18T01:54:01.921Z,95681.53
2022-10-18T01:56:34.229Z,95681.78
2022-10-18T01:59:21.899Z,95684.16
2022-10-18T02:01:54.193Z,95661.63
2022-10-18T02:05:00.631Z,95619.09
2022-10-18T02:07:36.562Z,95638.91
2022-10-18T02:10:17.023Z,95666.19
2022-10-18T02:12:47.004Z,95657.94
2022-10-18T02:15:17.692Z,95652.34
2022-10-18T02:17:47.563Z,95657.09
2022-10-18T02:20:20.655Z,95658.94
2022-10-18T02:22:50.476Z,95662.44
2022-10-18T02:25:23.406Z,95648.22
2022-10-18T02:27:55.286Z,95667.97
2022-10-18T02:30:37.152Z,95685.31
2022-10-18T02:33:32.387Z,95667.19
2022-10-18T02:36:05.599Z,95598.63
2022-10-18T02:38:33.606Z,95605.81
2022-10-18T02:41:01.369Z,95657.53
2022-10-18T02:43:28.142Z,95670.00
2022-10-18T02:45:54.887Z,95672.31
2022-10-18T02:48:21.609Z,95661.78
2022-10-18T02:50:48.397Z,95642.00
2022-10-18T02:53:15.198Z,95654.41
2022-10-18T02:55:41.957Z,95670.47
2022-10-18T02:58:08.734Z,95682.44
2022-10-18T03:00:35.426Z,95675.78
2022-10-18T03:03:02.770Z,95652.22
2022-10-18T03:05:29.522Z,95653.00
2022-10-18T03:07:59.127Z,95624.19
2022-10-18T03:10:25.857Z,95667.19
2022-10-18T03:12:52.631Z,95682.09
2022-10-18T03:15:19.319Z,95679.31
2022-10-18T03:17:46.661Z,95683.75
2022-10-18T03:20:13.933Z,95668.56
2022-10-18T03:22:40.934Z,95650.03
2022-10-18T03:25:07.979Z,95653.03
2022-10-18T03:27:35.035Z,95668.13
2022-10-18T03:30:01.858Z,95680.25
2022-10-18T03:32:28.584Z,95667.22
2022-10-18T03:34:55.275Z,95664.47
2022-10-18T03:37:22.061Z,95659.75
2022-10-18T03:39:48.778Z,95675.56
2022-10-18T03:42:15.843Z,95633.72
2022-10-18T03:44:43.219Z,95652.31
2022-10-18T03:47:09.943Z,95677.56
2022-10-18T03:49:36.724Z,95670.81
2022-10-18T03:52:03.633Z,95676.47
2022-10-18T03:54:30.940Z,95674.44
2022-10-18T03:56:57.614Z,95678.50
2022-10-18T03:59:24.746Z,95645.03
2022-10-18T04:01:51.630Z,95667.44
2022-10-18T04:04:18.466Z,95681.66
2022-10-18T04:06:45.575Z,95682.34
2022-10-18T04:09:12.559Z,95691.56
2022-10-18T04:11:39.262Z,95672.47
2022-10-18T04:14:06.009Z,95686.19
2022-10-18T04:19:07.954Z,95652.31
2022-10-18T04:21:34.733Z,95662.53
2022-10-18T04:24:01.409Z,95656.94
2022-10-18T04:26:28.682Z,95654.38
2022-10-18T04:28:55.598Z,95659.13
2022-10-18T04:31:22.284Z,95656.69
2022-10-18T04:33:48.982Z,95648.19
2022-10-18T04:36:15.913Z,95655.78
2022-10-18T04:38:42.836Z,95662.72
2022-10-18T04:41:09.517Z,95680.56
2022-10-18T04:43:36.295Z,95686.16
2022-10-18T04:46:03.569Z,95679.28
2022-10-18T04:48:30.249Z,95677.25
2022-10-18T04:50:57.021Z,95683.84
2022-10-18T04:53:23.710Z,95660.50
2022-10-18T04:55:51.242Z,95653.53
2022-10-18T04:58:19.212Z,95651.78
2022-10-18T05:00:48.442Z,95658.88
2022-10-18T05:03:15.531Z,95674.03
2022-10-18T05:06:00.682Z,95669.94
2022-10-18T05:08:29.479Z,95697.81
2022-10-18T05:10:56.489Z,95681.72
2022-10-18T05:13:23.347Z,95663.97
2022-10-18T05:15:50.078Z,95632.81
2022-10-18T05:18:17.458Z,95644.97
2022-10-18T05:20:44.203Z,95656.59
2022-10-18T05:23:10.984Z,95650.47
2022-10-18T05:25:42.372Z,95639.41
2022-10-18T05:28:11.087Z,95636.91
2022-10-18T05:30:42.728Z,95666.66
2022-10-18T05:33:09.745Z,95674.13
2022-10-18T05:35:36.617Z,95678.44
2022-10-18T05:38:06.765Z,95668.66
2022-10-18T05:40:34.181Z,95697.94
2022-10-18T05:43:00.902Z,95666.38
2022-10-18T05:45:27.662Z,95630.16
2022-10-18T05:47:55.070Z,95603.63
2022-10-18T05:50:22.168Z,95596.91
2022-10-18T05:52:49.425Z,95583.34
2022-10-18T05:55:16.090Z,95598.19
2022-10-18T05:57:42.783Z,95610.63
2022-10-18T06:00:10.667Z,95621.53
2022-10-18T06:02:42.139Z,95615.47
2022-10-18T06:05:09.119Z,95604.00
2022-10-18T06:07:35.902Z,95634.47
2022-10-18T06:10:03.240Z,95639.88
2022-10-18T06:12:29.962Z,95609.34
2022-10-18T06:14:57.002Z,95643.50
2022-10-18T06:17:24.145Z,95631.88
2022-10-18T06:19:51.879Z,95647.34
2022-10-18T06:22:19.966Z,95674.00
2022-10-18T06:24:47.023Z,95679.97
2022-10-18T06:27:13.967Z,95678.66
2022-10-18T06:29:41.064Z,95672.06
2022-10-18T06:32:08.051Z,95680.69
2022-10-18T06:34:35.210Z,95692.50
2022-10-18T06:37:03.552Z,95691.69
2022-10-18T06:39:30.263Z,95673.19
2022-10-18T06:41:57.222Z,95671.75
2022-10-18T06:44:24.162Z,95671.91
2022-10-18T06:46:51.647Z,95645.59
2022-10-18T06:49:19.855Z,95650.63
2022-10-18T06:51:46.706Z,95667.34
2022-10-18T06:54:18.142Z,95696.22
2022-10-18T06:56:45.347Z,95678.97
2022-10-18T06:59:12.465Z,95680.81
2022-10-18T07:01:39.178Z,95707.34
2022-10-18T07:04:05.891Z,95677.38
2022-10-18T07:06:32.793Z,95669.75
2022-10-18T07:09:00.248Z,95679.53
2022-10-18T07:11:27.462Z,95686.75
2022-10-18T07:14:00.908Z,95689.97
2022-10-18T07:16:27.845Z,95674.31
2022-10-18T07:18:54.783Z,95669.22
2022-10-18T07:21:24.206Z,95659.38
2022-10-18T07:23:51.898Z,95697.75
2022-10-18T07:26:24.896Z,95709.06
2022-10-18T07:28:55.904Z,95701.56
2022-10-18T07:31:24.221Z,95692.63
2022-10-18T07:33:51.571Z,95725.47
2022-10-18T07:36:19.134Z,95706.41
2022-10-18T07:38:46.016Z,95721.41
2022-10-18T07:41:14.221Z,95703.16
2022-10-18T07:43:50.798Z,95724.84
2022-10-18T07:46:18.383Z,95707.22
2022-10-18T07:48:46.393Z,95713.91
2022-10-18T07:51:13.658Z,95702.38
2022-10-18T07:53:40.584Z,95726.63
2022-10-18T07:56:15.759Z,95697.19
2022-10-18T07:58:46.414Z,95706.19
2022-10-18T08:01:14.220Z,95771.97
2022-10-18T08:03:42.901Z,95748.13
2022-10-18T08:06:11.961Z,95757.19
2022-10-18T08:08:40.547Z,95736.72
2022-10-18T08:11:10.564Z,95693.00
2022-10-18T08:13:37.332Z,95705.00
2022-10-18T08:16:13.311Z,95698.09
2022-10-18T08:18:40.647Z,95694.19
2022-10-18T08:21:09.590Z,95743.38
2022-10-18T08:23:36.971Z,95777.00
2022-10-18T08:26:09.554Z,95783.09
2022-10-18T08:28:36.970Z,95785.06
2022-10-18T08:31:06.030Z,95767.34
2022-10-18T08:33:34.873Z,95746.56
2022-10-18T08:36:07.339Z,95757.19
2022-10-18T08:38:38.631Z,95741.06
2022-10-18T08:41:37.318Z,95778.75
2022-10-18T08:44:09.212Z,95753.16
2022-10-18T08:46:38.897Z,95747.28
2022-10-18T08:49:11.224Z,95739.69
2022-10-18T08:51:45.396Z,95725.06
2022-10-18T08:54:22.885Z,95693.78
2022-10-18T08:56:58.405Z,95740.88
2022-10-18T08:59:25.693Z,95773.53
2022-10-18T09:02:17.700Z,95742.00
2022-10-18T09:04:55.124Z,95786.66
2022-10-18T09:07:53.871Z,95776.16
2022-10-18T09:10:42.454Z,95769.00
2022-10-18T09:14:03.411Z,95752.66
2022-10-18T09:16:48.234Z,95755.59
2022-10-18T09:19:23.476Z,95720.28
2022-10-18T09:21:52.685Z,95743.00
2022-10-18T09:24:45.906Z,95735.16
2022-10-18T09:27:17.066Z,95766.94
2022-10-18T09:30:27.023Z,95766.41
2022-10-18T09:33:03.080Z,95704.78
2022-10-18T09:35:56.742Z,95743.28
2022-10-18T09:38:30.932Z,95772.25
2022-10-18T09:41:04.904Z,95760.19
2022-10-18T09:43:54.971Z,95712.75
2022-10-18T09:46:25.469Z,95727.66
2022-10-18T09:49:00.290Z,95743.63
2022-10-18T09:51:33.834Z,95738.84
2022-10-18T09:54:25.396Z,95772.13
2022-10-18T09:57:06.970Z,95743.97
2022-10-18T09:59:42.883Z,95739.75
2022-10-18T10:02:16.451Z,95742.75
2022-10-18T10:04:43.342Z,95730.56
2022-10-18T10:07:19.519Z,95756.19
2022-10-18T10:09:48.522Z,95750.47
2022-10-18T10:12:29.274Z,95732.09
2022-10-18T10:15:31.222Z,95747.16
2022-10-18T10:18:05.869Z,95745.56
2022-10-18T10:20:43.130Z,95725.00
2022-10-18T10:23:32.778Z,95726.88
2022-10-18T10:26:02.490Z,95753.75
2022-10-18T10:28:33.813Z,95753.84
2022-10-18T10:31:30.591Z,95761.03
2022-10-18T10:34:06.954Z,95721.66
2022-10-18T10:36:35.186Z,95733.81
2022-10-18T10:39:19.140Z,95727.50
2022-10-18T10:41:50.708Z,95720.75
2022-10-18T10:44:21.063Z,95760.75
2022-10-18T10:46:50.343Z,95746.06
2022-10-18T10:49:46.003Z,95734.66
2022-10-18T10:52:28.077Z,95754.19
2022-10-18T10:57:50.423Z,95736.25
2022-10-18T11:00:41.877Z,95698.50
2022-10-18T11:03:27.738Z,95714.88
2022-10-18T11:05:55.667Z,95706.81
2022-10-18T11:08:26.025Z,95731.28
2022-10-18T11:11:04.832Z,95693.66
2022-10-18T11:13:56.942Z,95724.59
2022-10-18T11:16:56.767Z,95725.00
2022-10-18T11:19:55.582Z,95724.97
2022-10-18T11:22:25.971Z,95687.81
2022-10-18T11:24:52.887Z,95705.91
2022-10-18T11:27:30.398Z,95685.94
2022-10-18T11:30:14.620Z,95692.59
2022-10-18T11:33:15.283Z,95680.50
2022-10-18T11:35:46.450Z,95704.03
2022-10-18T11:38:38.818Z,95702.19
2022-10-18T11:41:30.113Z,95684.56
2022-10-18T11:44:10.127Z,95668.22
2022-10-18T11:47:00.895Z,95675.06
2022-10-18T11:49:36.940Z,95681.06
2022-10-18T11:52:23.124Z,95668.97
2022-10-18T11:54:56.009Z,95652.88
2022-10-18T11:57:45.888Z,95665.91
2022-10-18T12:00:22.026Z,95661.78
2022-10-18T12:03:08.382Z,95657.84
2022-10-18T12:05:39.772Z,95659.53
2022-10-18T12:08:12.423Z,95681.78
2022-10-18T12:10:59.937Z,95675.22
2022-10-18T12:13:41.542Z,95648.47
2022-10-18T12:16:10.319Z,95634.69
2022-10-18T12:18:54.390Z,95648.75
2022-10-18T12:21:26.179Z,95655.78
2022-10-18T12:24:01.369Z,95642.69
2022-10-18T12:26:29.832Z,95651.66
2022-10-18T12:29:12.634Z,95665.13
2022-10-18T12:31:59.422Z,95631.88
2022-10-18T12:34:39.411Z,95615.31
2022-10-18T12:37:29.522Z,95613.41
2022-10-18T12:40:42.456Z,95645.88
2022-10-18T12:43:17.220Z,95634.41
2022-10-18T12:45:54.429Z,95625.78
2022-10-18T12:48:38.763Z,95611.09
2022-10-18T12:51:20.502Z,95600.25
2022-10-18T12:54:12.084Z,95615.97
2022-10-18T12:56:42.552Z,95608.00
2022-10-18T12:59:15.373Z,95608.63
2022-10-18T13:01:51.715Z,95618.94
2022-10-18T13:04:28.506Z,95600.13
2022-10-18T13:06:58.445Z,95589.81
2022-10-18T13:09:27.182Z,95562.56
2022-10-18T13:12:02.012Z,95586.63
2022-10-18T13:14:53.439Z,95581.97
2022-10-18T13:17:39.904Z,95569.25
2022-10-18T13:20:27.205Z,95597.66
2022-10-18T13:23:00.841Z,95596.63
2022-10-18T13:25:49.874Z,95588.56
2022-10-18T13:28:46.374Z,95590.03
2022-10-18T13:31:40.363Z,95595.94
2022-10-18T13:34:25.120Z,95609.41
2022-10-18T13:37:01.179Z,95591.00
2022-10-18T13:39:29.758Z,95579.91
2022-10-18T13:41:57.717Z,95596.44
2022-10-18T13:44:37.985Z,95603.72
2022-10-18T13:47:04.682Z,95575.53
2022-10-18T13:49:40.816Z,95571.56
2022-10-18T13:52:23.192Z,95593.22
2022-10-18T13:55:22.629Z,95606.75
2022-10-18T13:58:04.707Z,95604.13
2022-10-18T14:00:34.250Z,95609.66
2022-10-18T14:03:43.982Z,95609.56
2022-10-18T14:06:26.967Z,95590.81
2022-10-18T14:09:25.499Z,95565.78
2022-10-18T14:12:11.645Z,95573.06
2022-10-18T14:14:43.362Z,95593.47
2022-10-18T14:17:29.950Z,95569.31
2022-10-18T14:20:15.121Z,95554.19
2022-10-18T14:22:46.344Z,95575.88
2022-10-18T14:25:23.663Z,95546.13
2022-10-18T14:28:27.389Z,95554.59
2022-10-18T14:31:09.666Z,95551.59
2022-10-18T14:33:50.907Z,95551.06
2022-10-18T14:36:20.475Z,95561.78
2022-10-18T14:38:54.159Z,95551.53
2022-10-18T14:41:31.660Z,95542.22
2022-10-18T14:44:21.277Z,95578.50
2022-10-18T14:46:48.059Z,95567.63
2022-10-18T14:49:16.374Z,95560.25
2022-10-18T14:51:45.642Z,95551.66
2022-10-18T14:54:42.710Z,95552.16
2022-10-18T14:57:25.543Z,95546.25
2022-10-18T14:59:58.230Z,95533.31
2022-10-18T15:02:30.937Z,95533.97
2022-10-18T15:05:05.263Z,95551.28
2022-10-18T15:07:32.835Z,95530.22
2022-10-18T15:10:02.895Z,95533.41
2022-10-18T15:12:41.006Z,95540.19
2022-10-18T15:15:22.014Z,95525.25
2022-10-18T15:17:50.117Z,95537.69
2022-10-18T15:20:42.993Z,95549.63
2022-10-18T15:23:26.315Z,95539.84
2022-10-18T15:26:02.074Z,95516.91
2022-10-18T15:28:40.665Z,95534.59
2022-10-18T15:31:24.507Z,95538.31
2022-10-18T15:33:52.065Z,95537.25
2022-10-18T15:36:32.770Z,95546.28
2022-10-18T15:39:27.035Z,95542.16
2022-10-18T15:41:57.742Z,95565.75
2022-10-18T15:44:35.063Z,95557.75
2022-10-18T15:47:20.181Z,95561.91
2022-10-18T15:49:58.285Z,95573.78
2022-10-18T15:52:37.455Z,95559.91
2022-10-18T15:55:29.740Z,95550.38
2022-10-18T15:58:11.359Z,95562.47
2022-10-18T16:00:38.771Z,95558.72
2022-10-18T16:03:09.819Z,95552.50
2022-10-18T16:05:38.207Z,95546.94
2022-10-18T16:08:06.626Z,95561.03
2022-10-18T16:10:33.338Z,95543.47
2022-10-18T16:13:00.194Z,95555.59
2022-10-18T16:15:26.937Z,95574.25
2022-10-18T16:17:54.008Z,95571.75
2022-10-18T16:20:26.197Z,95573.69
2022-10-18T16:22:52.950Z,95574.81
2022-10-18T16:25:19.691Z,95588.78
2022-10-18T16:27:46.479Z,95576.25
2022-10-18T16:30:19.943Z,95584.31
2022-10-18T16:32:47.386Z,95587.09
2022-10-18T16:35:14.153Z,95581.63
2022-10-18T16:37:41.901Z,95601.88
2022-10-18T16:40:22.424Z,95588.88
2022-10-18T16:42:49.166Z,95585.13
2022-10-18T16:45:16.490Z,95600.97
2022-10-18T16:47:43.262Z,95594.03
2022-10-18T16:50:16.866Z,95606.97
2022-10-18T16:52:43.989Z,95605.38
2022-10-18T16:55:26.447Z,95617.63
2022-10-18T16:57:53.287Z,95626.16
2022-10-18T17:00:23.547Z,95617.56
2022-10-18T17:02:50.562Z,95606.75
2022-10-18T17:05:18.432Z,95624.34
2022-10-18T17:07:45.758Z,95625.47
2022-10-18T17:10:19.149Z,95627.91
2022-10-18T17:12:46.609Z,95647.50
2022-10-18T17:15:13.542Z,95646.44
2022-10-18T17:17:42.399Z,95641.91
2022-10-18T17:20:12.125Z,95653.47
2022-10-18T17:22:38.934Z,95650.44
2022-10-18T17:25:07.270Z,95636.50
2022-10-18T17:27:34.359Z,95653.38
2022-10-18T17:30:01.749Z,95640.69
2022-10-18T17:32:28.593Z,95653.59
2022-10-18T17:34:56.334Z,95643.09
2022-10-18T17:37:23.323Z,95654.81
2022-10-18T17:39:50.021Z,95632.25
2022-10-18T17:42:17.077Z,95648.69
2022-10-18T17:44:45.955Z,95661.59
2022-10-18T17:47:12.654Z,95673.94
2022-10-18T17:49:41.128Z,95662.41
2022-10-18T17:52:08.317Z,95678.44
2022-10-18T17:54:35.132Z,95668.63
2022-10-18T17:57:02.206Z,95667.13
2022-10-18T17:59:28.981Z,95682.75
2022-10-18T18:01:56.485Z,95675.75
2022-10-18T18:04:24.239Z,95642.44
2022-10-18T18:06:52.814Z,95698.63
2022-10-18T18:09:21.118Z,95685.94
2022-10-18T18:11:48.925Z,95703.06
2022-10-18T18:14:16.245Z,95690.59
2022-10-18T18:16:46.193Z,95686.34
2022-10-18T18:19:13.901Z,95695.66
2022-10-18T18:21:42.926Z,95701.50
2022-10-18T18:24:11.709Z,95708.34
2022-10-18T18:26:39.808Z,95706.63
2022-10-18T18:29:07.656Z,95695.22
2022-10-18T18:31:38.880Z,95695.50
2022-10-18T18:34:10.396Z,95690.84
2022-10-18T18:36:37.529Z,95685.09
2022-10-18T18:39:09.140Z,95688.06
2022-10-18T18:41:37.433Z,95688.97
2022-10-18T18:44:05.819Z,95675.69
2022-10-18T18:46:37.303Z,95646.22
2022-10-18T18:49:04.897Z,95650.06
2022-10-18T18:51:33.577Z,95660.34
2022-10-18T18:54:00.485Z,95698.09
2022-10-18T18:56:29.122Z,95715.31
2022-10-18T18:58:58.720Z,95676.13
2022-10-18T19:01:28.506Z,95684.41
2022-10-18T19:03:57.355Z,95686.31
2022-10-18T19:06:39.029Z,95681.22
2022-10-18T19:09:12.988Z,95698.34
2022-10-18T19:11:39.972Z,95708.84
2022-10-18T19:14:09.078Z,95693.22
2022-10-18T19:16:37.762Z,95695.09
2022-10-18T19:19:13.296Z,95701.44
2022-10-18T19:21:43.449Z,95720.63
2022-10-18T19:24:11.162Z,95686.13
2022-10-18T19:26:45.009Z,95685.41
2022-10-18T19:29:16.182Z,95717.41
2022-10-18T19:31:44.155Z,95721.50
2022-10-18T19:34:13.845Z,95707.50
2022-10-18T19:36:43.421Z,95719.03
2022-10-18T19:39:15.835Z,95678.06
2022-10-18T19:41:45.807Z,95661.25
2022-10-18T19:44:13.983Z,95678.69
2022-10-18T19:46:40.931Z,95682.56
2022-10-18T19:49:09.659Z,95672.53
2022-10-18T19:51:36.562Z,95687.19
2022-10-18T19:54:04.307Z,95702.56
2022-10-18T19:56:31.461Z,95681.97
2022-10-18T19:58:59.704Z,95678.06
2022-10-18T20:01:28.740Z,95691.41
2022-10-18T20:03:55.932Z,95675.75
2022-10-18T20:06:23.405Z,95673.41
2022-10-18T20:08:50.772Z,95666.59
2022-10-18T20:11:20.431Z,95688.13
2022-10-18T20:13:47.474Z,95681.66
2022-10-18T20:16:16.541Z,95694.97
2022-10-18T20:18:44.295Z,95688.69
2022-10-18T20:21:14.434Z,95669.06
2022-10-18T20:23:43.192Z,95681.72
2022-10-18T20:26:20.586Z,95679.53
2022-10-18T20:28:56.883Z,95693.94
2022-10-18T20:31:29.560Z,95679.44
2022-10-18T20:34:02.065Z,95667.81
2022-10-18T20:36:31.011Z,95655.69
2022-10-18T20:38:59.314Z,95678.00
2022-10-18T20:41:38.701Z,95707.91
2022-10-18T20:44:08.475Z,95722.09
2022-10-18T20:46:37.344Z,95706.50
2022-10-18T20:49:06.900Z,95729.69
2022-10-18T20:51:42.735Z,95727.94
2022-10-18T20:54:10.440Z,95735.72
2022-10-18T20:56:38.796Z,95702.22
2022-10-18T20:59:09.502Z,95732.06
2022-10-18T21:01:38.269Z,95744.81
2022-10-18T21:04:07.701Z,95726.16
2022-10-18T21:06:43.972Z,95742.84
2022-10-18T21:09:16.092Z,95701.00
2022-10-18T21:11:45.284Z,95698.41
2022-10-18T21:14:18.789Z,95724.84
2022-10-18T21:16:45.961Z,95711.63
2022-10-18T21:19:14.549Z,95708.19
2022-10-18T21:21:44.513Z,95677.94
2022-10-18T21:24:12.746Z,95703.53
2022-10-18T21:26:40.210Z,95704.34
2022-10-18T21:29:07.266Z,95696.41
2022-10-18T21:31:36.382Z,95710.88
2022-10-18T21:34:13.244Z,95715.25
2022-10-18T21:36:41.098Z,95711.91
2022-10-18T21:39:11.242Z,95684.94
2022-10-18T21:41:38.217Z,95664.19
2022-10-18T21:44:08.313Z,95679.84
2022-10-18T21:46:39.402Z,95698.88
2022-10-18T21:49:07.511Z,95696.00
2022-10-18T21:51:34.322Z,95706.16
2022-10-18T21:54:01.337Z,95695.13
2022-10-18T21:56:33.219Z,95685.81
2022-10-18T21:59:01.398Z,95676.34
2022-10-18T22:01:34.497Z,95661.97
2022-10-18T22:04:02.872Z,95706.22
2022-10-18T22:06:32.620Z,95681.75
2022-10-18T22:09:03.263Z,95690.78
2022-10-18T22:11:37.026Z,95675.13
2022-10-18T22:14:04.115Z,95685.31
2022-10-18T22:16:30.803Z,95665.13
2022-10-18T22:18:59.749Z,95636.38
2022-10-18T22:21:27.785Z,95651.22
2022-10-18T22:23:59.828Z,95648.56
2022-10-18T22:26:32.609Z,95653.81
2022-10-18T22:29:03.337Z,95680.22
2022-10-18T22:31:32.704Z,95670.84
2022-10-18T22:34:03.261Z,95683.97
2022-10-18T22:36:30.737Z,95673.75
2022-10-18T22:38:57.886Z,95661.94
2022-10-18T22:41:24.821Z,95652.06
2022-10-18T22:43:52.865Z,95674.53
2022-10-18T22:46:20.448Z,95663.53
2022-10-18T22:48:48.140Z,95650.84
2022-10-18T22:51:15.821Z,95635.97
2022-10-18T22:53:43.093Z,95565.72
2022-10-18T22:56:15.197Z,95586.50
2022-10-18T22:58:41.856Z,95640.75
2022-10-18T23:01:11.709Z,95653.94
2022-10-18T23:03:38.969Z,95658.81
2022-10-18T23:06:19.575Z,95658.41
2022-10-18T23:08:46.291Z,95659.94
2022-10-18T23:11:14.244Z,95661.59
2022-10-18T23:13:40.979Z,95634.38
2022-10-18T23:16:07.922Z,95636.25
2022-10-18T23:18:34.944Z,95648.47
2022-10-18T23:21:07.234Z,95643.00
2022-10-18T23:23:35.877Z,95630.59
2022-10-18T23:26:09.533Z,95658.06
2022-10-18T23:28:38.287Z,95619.03
2022-10-18T23:31:10.144Z,95646.28
2022-10-18T23:33:38.366Z,95611.91
2022-10-18T23:36:07.301Z,95628.69
2022-10-18T23:38:35.049Z,95644.09
2022-10-18T23:41:01.878Z,95616.16
2022-10-18T23:43:28.683Z,95610.47
2022-10-18T23:45:56.207Z,95615.06
2022-10-18T23:48:22.960Z,95628.56
2022-10-18T23:50:49.872Z,95633.19
2022-10-18T23:53:16.811Z,95605.47
2022-10-18T23:56:00.809Z,95615.63
2022-10-18T23:58:29.350Z,95640.63
